Time;durP1;ratioP1;P1;durP2;ratioP2;P2;SDS_P1;SDS_P2;PMS_P1;PMS_P2;Temp;Humidity;BMP_temperature;BMP_pressure;BME280_temperature;BME280_humidity;BME280_pressure;Samples;Min_cycle;Max_cycle;Signal;HPM_P1;HPM_P2
2022/06/24 00:01:41;;;;;;;3.88;3.40;;;22.10;96.00;;;;;;5073558;28;20396;-61
2022/06/24 00:04:07;;;;;;;5.57;4.63;;;22.10;96.10;;;;;;5074002;28;20029;-61
2022/06/24 00:06:46;;;;;;;5.05;4.20;;;22.10;96.40;;;;;;5073550;28;20036;-61
2022/06/24 00:09:12;;;;;;;;;;;22.00;96.30;;;;;;5073407;28;20021;-61
2022/06/24 00:11:38;;;;;;;6.32;4.15;;;21.90;96.50;;;;;;5074096;28;19954;-61
2022/06/24 00:14:12;;;;;;;4.32;3.88;;;21.80;96.90;;;;;;5073328;28;20016;-61
2022/06/24 00:17:00;;;;;;;4.38;3.90;;;21.80;96.80;;;;;;5073488;28;20488;-61
2022/06/24 00:19:28;;;;;;;5.18;3.95;;;21.90;96.80;;;;;;5073135;28;20546;-60
2022/06/24 00:22:01;;;;;;;6.03;4.50;;;21.90;96.90;;;;;;5074062;28;20111;-61
2022/06/24 00:24:27;;;;;;;7.47;5.25;;;21.90;96.90;;;;;;5061557;28;20060;-60
2022/06/24 00:26:52;;;;;;;6.13;4.38;;;21.90;97.00;;;;;;5073701;28;20036;-60
2022/06/24 00:29:18;;;;;;;5.80;3.67;;;21.80;97.00;;;;;;5073881;28;20017;-60
2022/06/24 00:32:06;;;;;;;5.43;3.78;;;21.90;97.10;;;;;;5073626;28;20055;-61
2022/06/24 00:34:36;;;;;;;6.07;4.15;;;21.90;96.90;;;;;;5062612;28;20071;-61
2022/06/24 00:37:28;;;;;;;6.13;3.33;;;21.90;97.00;;;;;;5053892;28;20385;-61
2022/06/24 00:39:57;;;;;;;4.70;3.47;;;22.00;96.80;;;;;;5055499;28;20127;-60
2022/06/24 00:42:23;;;;;;;5.68;3.92;;;21.90;96.90;;;;;;5055110;28;20017;-61
2022/06/24 00:45:03;;;;;;;8.10;6.38;;;21.90;97.00;;;;;;5065096;28;20518;-61
2022/06/24 00:47:31;;;;;;;11.85;8.63;;;21.70;98.10;;;;;;5059595;28;20029;-60
2022/06/24 00:49:59;;;;;;;10.95;9.00;;;21.40;99.90;;;;;;5076795;28;20027;-60
2022/06/24 00:52:25;;;;;;;12.77;9.07;;;21.10;99.90;;;;;;5059260;28;20136;-60
2022/06/24 00:54:50;;;;;;;9.98;8.88;;;21.00;99.90;;;;;;5060922;28;20167;-60
2022/06/24 00:57:17;;;;;;;12.40;10.00;;;20.90;99.90;;;;;;5055544;28;20519;-60
2022/06/24 00:59:44;;;;;;;13.63;11.07;;;20.90;99.90;;;;;;5057575;28;20038;-60
2022/06/24 01:02:11;;;;;;;18.08;13.70;;;20.60;99.90;;;;;;5063220;28;20107;-60
2022/06/24 01:04:37;;;;;;;21.95;16.98;;;20.30;99.90;;;;;;5061701;28;20024;-61
2022/06/24 01:07:02;;;;;;;25.85;18.58;;;20.10;99.90;;;;;;5068434;28;20124;-61
2022/06/24 01:09:28;;;;;;;20.35;16.45;;;20.00;99.90;;;;;;5056830;28;20050;-60
2022/06/24 01:11:54;;;;;;;14.75;12.57;;;19.90;99.90;;;;;;5070853;28;20079;-60
2022/06/24 01:14:19;;;;;;;11.50;10.38;;;19.80;99.90;;;;;;5057398;28;20020;-60
2022/06/24 01:16:45;;;;;;;9.70;7.03;;;19.80;99.90;;;;;;5057730;28;20033;-60
2022/06/24 01:19:13;;;;;;;9.43;6.65;;;19.70;99.90;;;;;;5071986;28;20035;-60
2022/06/24 01:21:46;;;;;;;9.38;7.32;;;19.80;99.90;;;;;;5073636;28;20021;-60
2022/06/24 01:24:17;;;;;;;12.40;8.88;;;19.80;99.90;;;;;;5073144;28;20028;-60
2022/06/24 01:26:48;;;;;;;9.63;7.97;;;19.80;99.90;;;;;;5072378;28;20103;-59
2022/06/24 01:29:14;;;;;;;11.00;8.02;;;19.80;99.90;;;;;;5064342;28;20392;-60
2022/06/24 01:31:40;;;;;;;9.38;8.25;;;19.80;99.90;;;;;;5058467;28;20032;-60
2022/06/24 01:34:07;;;;;;;10.57;8.25;;;19.80;99.90;;;;;;5073638;28;20017;-60
2022/06/24 01:36:33;;;;;;;8.75;7.88;;;19.80;99.90;;;;;;5052763;28;20028;-60
2022/06/24 01:38:59;;;;;;;9.85;8.70;;;19.90;99.90;;;;;;5052719;28;20033;-60
2022/06/24 01:41:25;;;;;;;11.45;8.32;;;19.90;99.90;;;;;;5052969;28;20035;-60
2022/06/24 01:43:50;;;;;;;9.73;7.82;;;19.90;99.90;;;;;;5070679;28;20025;-60
2022/06/24 01:46:16;;;;;;;9.00;7.40;;;19.90;99.90;;;;;;5070499;28;20025;-60
2022/06/24 01:48:41;;;;;;;9.20;7.93;;;19.90;99.90;;;;;;5068965;28;20060;-60
2022/06/24 01:51:09;;;;;;;7.80;7.10;;;19.80;99.90;;;;;;5071062;28;20099;-60
2022/06/24 01:53:35;;;;;;;8.82;7.47;;;19.80;99.90;;;;;;5068016;28;20017;-60
2022/06/24 01:56:01;;;;;;;8.02;6.57;;;19.80;99.90;;;;;;5052062;28;20136;-60
2022/06/24 01:58:27;;;;;;;6.22;4.10;;;19.70;99.90;;;;;;5059314;28;20144;-60
2022/06/24 02:00:52;;;;;;;3.40;2.70;;;19.70;99.90;;;;;;5058546;28;20138;-60
2022/06/24 02:03:18;;;;;;;2.65;2.10;;;19.60;99.90;;;;;;5052784;28;20028;-60
2022/06/24 02:05:45;;;;;;;3.97;2.05;;;19.60;99.90;;;;;;5052563;28;20033;-60
2022/06/24 02:08:11;;;;;;;3.67;1.65;;;19.60;99.90;;;;;;5063728;28;20457;-60
2022/06/24 02:13:27;;;;;;;3.40;1.35;;;19.40;99.90;;;;;;5052992;28;20028;-60
2022/06/24 02:16:03;;;;;;;3.22;2.17;;;19.40;99.90;;;;;;5053646;28;20067;-60
2022/06/24 02:18:30;;;;;;;1.00;0.80;;;19.40;99.90;;;;;;5052631;28;20533;-60
2022/06/24 02:20:57;;;;;;;2.80;0.93;;;19.30;99.90;;;;;;5053374;28;20029;-60
2022/06/24 02:23:23;;;;;;;1.50;1.10;;;19.30;99.90;;;;;;5052851;28;20428;-60
2022/06/24 02:25:50;;;;;;;0.95;0.60;;;19.30;99.90;;;;;;5058095;28;20082;-60
2022/06/24 02:28:17;;;;;;;2.10;0.63;;;19.30;99.90;;;;;;5061276;28;20492;-60
2022/06/24 02:30:44;;;;;;;0.50;0.40;;;19.20;99.90;;;;;;5057993;28;20027;-60
2022/06/24 02:33:10;;;;;;;1.13;0.57;;;19.20;99.90;;;;;;5075695;28;20118;-60
2022/06/24 02:35:37;;;;;;;2.22;0.70;;;19.00;99.90;;;;;;5074500;28;20075;-60
2022/06/24 02:38:02;;;;;;;1.98;0.60;;;19.00;99.90;;;;;;5075684;28;20094;-60
2022/06/24 02:40:47;;;;;;;2.85;1.02;;;19.10;99.90;;;;;;5076337;28;20392;-60
2022/06/24 02:43:23;;;;;;;2.25;0.80;;;19.10;99.90;;;;;;5058708;28;20469;-60
2022/06/24 02:46:08;;;;;;;2.20;0.82;;;19.00;99.90;;;;;;5063866;28;20024;-60
2022/06/24 02:48:35;;;;;;;1.73;0.60;;;19.00;99.90;;;;;;5076043;28;20036;-60
2022/06/24 02:51:05;;;;;;;0.90;0.50;;;18.90;99.90;;;;;;5065632;28;20029;-60
2022/06/24 02:53:32;;;;;;;0.80;0.43;;;18.90;99.90;;;;;;5072767;28;20025;-60
2022/06/24 02:56:04;;;;;;;0.98;0.55;;;18.90;99.90;;;;;;5073764;28;20056;-60
2022/06/24 02:58:32;;;;;;;0.80;0.40;;;18.90;99.90;;;;;;5064325;28;20024;-60
2022/06/24 03:00:59;;;;;;;1.98;0.60;;;18.90;99.90;;;;;;5058804;28;20028;-60
2022/06/24 03:03:26;;;;;;;1.58;0.60;;;18.80;99.90;;;;;;5063345;28;20108;-60
2022/06/24 03:05:52;;;;;;;1.80;0.70;;;18.80;99.90;;;;;;5066779;28;20465;-60
2022/06/24 03:08:19;;;;;;;0.80;0.43;;;18.70;99.90;;;;;;5095567;28;20028;-59
2022/06/24 03:10:45;;;;;;;2.58;0.50;;;18.70;99.90;;;;;;5060606;28;20021;-60
2022/06/24 03:13:12;;;;;;;2.53;0.70;;;18.60;99.90;;;;;;5073370;28;20048;-60
2022/06/24 03:15:39;;;;;;;1.45;0.47;;;18.60;99.90;;;;;;5072328;28;20028;-60
2022/06/24 03:18:05;;;;;;;1.30;0.50;;;18.60;99.90;;;;;;5086866;28;20366;-60
2022/06/24 03:20:31;;;;;;;2.05;0.60;;;18.60;99.90;;;;;;5067424;28;20104;-60
2022/06/24 03:22:57;;;;;;;2.60;0.68;;;18.60;99.90;;;;;;5072291;28;20021;-60
2022/06/24 03:25:22;;;;;;;3.00;0.60;;;18.60;99.90;;;;;;5070029;28;20031;-60
2022/06/24 03:27:48;;;;;;;1.25;0.65;;;18.60;99.90;;;;;;5075089;28;20024;-60
2022/06/24 03:30:14;;;;;;;2.83;0.80;;;18.60;99.90;;;;;;5060887;28;20096;-60
2022/06/24 03:32:40;;;;;;;3.10;0.95;;;18.60;99.90;;;;;;5062421;28;20055;-60
2022/06/24 03:35:07;;;;;;;2.03;0.77;;;18.60;99.90;;;;;;5061094;28;20049;-60
2022/06/24 03:37:33;;;;;;;1.88;0.90;;;18.50;99.90;;;;;;5055589;28;20048;-60
2022/06/24 03:39:59;;;;;;;3.08;1.13;;;18.50;99.90;;;;;;5055765;28;20021;-60
2022/06/24 03:42:25;;;;;;;1.75;0.80;;;18.50;99.90;;;;;;5069885;28;20024;-60
2022/06/24 03:44:51;;;;;;;1.75;0.70;;;18.50;99.90;;;;;;5056918;28;20484;-60
2022/06/24 03:47:17;;;;;;;1.75;0.80;;;18.50;99.90;;;;;;5066898;28;20059;-60
2022/06/24 03:49:43;;;;;;;1.20;0.80;;;18.50;99.90;;;;;;5056673;28;20477;-60
2022/06/24 03:52:09;;;;;;;0.70;0.60;;;18.50;99.90;;;;;;5055713;28;20150;-60
2022/06/24 03:54:35;;;;;;;1.02;0.68;;;18.60;99.90;;;;;;5071946;28;20465;-59
2022/06/24 03:57:01;;;;;;;2.35;0.63;;;18.60;99.90;;;;;;5055460;28;20127;-60
2022/06/24 03:59:26;;;;;;;2.67;0.60;;;18.60;99.90;;;;;;5071735;28;20139;-59
2022/06/24 04:01:52;;;;;;;1.13;0.70;;;18.60;99.90;;;;;;5087557;28;20028;-60
2022/06/24 04:04:17;;;;;;;1.98;0.65;;;18.60;99.90;;;;;;5071856;28;20024;-60
2022/06/24 04:06:43;;;;;;;2.20;0.73;;;18.60;99.90;;;;;;5077437;28;20365;-60
2022/06/24 04:09:09;;;;;;;1.40;0.75;;;18.60;99.90;;;;;;5059749;28;20024;-60
2022/06/24 04:11:34;;;;;;;1.70;1.00;;;18.60;99.90;;;;;;5055777;28;20028;-60
2022/06/24 04:14:00;;;;;;;1.00;0.70;;;18.60;99.90;;;;;;5059873;28;20019;-60
2022/06/24 04:16:26;;;;;;;1.73;0.80;;;18.60;99.90;;;;;;5065770;28;20473;-60
2022/06/24 04:18:52;;;;;;;2.38;1.10;;;18.60;99.90;;;;;;5090926;28;20017;-60
2022/06/24 04:21:19;;;;;;;1.40;0.90;;;18.60;99.90;;;;;;5056841;28;20056;-60
2022/06/24 04:23:45;;;;;;;1.75;1.13;;;18.60;99.90;;;;;;5068417;28;20098;-60
2022/06/24 04:26:12;;;;;;;2.03;1.10;;;18.60;99.90;;;;;;5062821;28;20490;-60
2022/06/24 04:28:38;;;;;;;2.42;1.23;;;18.60;99.90;;;;;;5059360;28;20074;-60
2022/06/24 04:31:04;;;;;;;2.50;1.00;;;18.60;99.90;;;;;;5053945;28;20100;-60
2022/06/24 04:33:30;;;;;;;1.88;1.20;;;18.60;99.90;;;;;;5069719;28;20028;-60
2022/06/24 04:35:56;;;;;;;2.75;1.23;;;18.70;99.90;;;;;;5054297;28;20025;-59
2022/06/24 04:38:22;;;;;;;1.67;1.20;;;18.70;99.90;;;;;;5054384;28;20033;-59
2022/06/24 04:40:48;;;;;;;1.83;1.17;;;18.60;99.90;;;;;;5054343;28;20060;-60
2022/06/24 04:43:13;;;;;;;1.77;1.10;;;18.60;99.90;;;;;;5055599;28;20029;-59
2022/06/24 04:45:39;;;;;;;2.13;1.10;;;18.70;99.90;;;;;;5073099;28;20476;-60
2022/06/24 04:48:06;;;;;;;1.50;0.88;;;18.70;99.90;;;;;;5059423;28;20419;-60
2022/06/24 04:50:32;;;;;;;2.20;1.20;;;18.70;99.90;;;;;;5069702;28;20493;-60
2022/06/24 04:52:57;;;;;;;2.60;0.95;;;18.80;99.90;;;;;;5057771;28;20397;-60
2022/06/24 04:55:38;;;;;;;3.03;1.50;;;18.70;99.90;;;;;;5053744;28;20029;-59
2022/06/24 04:58:03;;;;;;;2.25;1.02;;;18.80;99.90;;;;;;5051234;28;20409;-59
2022/06/24 05:00:29;;;;;;;2.20;1.13;;;18.80;99.90;;;;;;5052966;28;20477;-59
2022/06/24 05:02:54;;;;;;;2.67;1.30;;;18.80;99.90;;;;;;5067953;28;20025;-60
2022/06/24 05:05:22;;;;;;;2.47;1.27;;;18.80;99.90;;;;;;5070132;28;20066;-59
2022/06/24 05:07:47;;;;;;;2.90;1.40;;;18.80;99.90;;;;;;5067867;28;20044;-59
2022/06/24 05:10:13;;;;;;;1.52;1.30;;;18.80;99.90;;;;;;5067035;28;20051;-59
2022/06/24 05:12:41;;;;;;;2.10;1.40;;;18.90;99.90;;;;;;5062728;28;20028;-59
2022/06/24 05:15:07;;;;;;;2.85;1.50;;;18.90;99.90;;;;;;5065167;28;20052;-60
2022/06/24 05:17:32;;;;;;;3.22;1.80;;;18.90;99.90;;;;;;5061912;28;20052;-60
2022/06/24 05:19:58;;;;;;;2.45;1.52;;;19.00;99.90;;;;;;5065299;28;20063;-60
2022/06/24 05:22:23;;;;;;;3.38;1.63;;;19.00;99.90;;;;;;5067878;28;20195;-59
2022/06/24 05:24:49;;;;;;;2.97;1.45;;;19.00;99.90;;;;;;5071877;28;20443;-59
2022/06/24 05:27:27;;;;;;;5.47;1.88;;;19.00;99.90;;;;;;5067101;28;20089;-59
2022/06/24 05:29:53;;;;;;;2.75;1.50;;;19.00;99.90;;;;;;5062852;28;20032;-59
2022/06/24 05:32:19;;;;;;;2.75;1.70;;;19.00;99.90;;;;;;5068094;28;20027;-59
2022/06/24 05:34:44;;;;;;;1.40;1.25;;;19.00;99.90;;;;;;5053774;28;20385;-59
2022/06/24 05:37:09;;;;;;;1.75;1.50;;;19.00;99.90;;;;;;5053724;28;20481;-60
2022/06/24 05:39:35;;;;;;;2.72;1.70;;;19.00;99.90;;;;;;5053421;28;20037;-59
2022/06/24 05:42:01;;;;;;;2.55;1.70;;;19.10;99.90;;;;;;5065895;28;20032;-59
2022/06/24 05:44:26;;;;;;;3.03;2.17;;;19.00;99.90;;;;;;5070588;28;20288;-60
2022/06/24 05:47:25;;;;;;;2.85;2.10;;;18.90;99.90;;;;;;5071366;28;20032;-59
2022/06/24 05:49:50;;;;;;;2.40;2.20;;;18.90;99.90;;;;;;5070572;28;20028;-59
2022/06/24 05:52:16;;;;;;;4.70;2.05;;;18.80;99.90;;;;;;5069994;28;20372;-59
2022/06/24 05:57:26;;;;;;;4.63;2.85;;;18.90;99.90;;;;;;5072127;28;20167;-59
2022/06/24 05:59:51;;;;;;;3.10;2.33;;;18.80;99.90;;;;;;5069208;28;20103;-59
2022/06/24 06:02:18;;;;;;;2.65;2.33;;;18.70;99.90;;;;;;5071244;28;20036;-59
2022/06/24 06:04:44;;;;;;;4.53;2.70;;;18.70;99.90;;;;;;5070686;28;20020;-59
2022/06/24 06:07:09;;;;;;;7.53;3.65;;;18.60;99.90;;;;;;5069168;28;20039;-59
2022/06/24 06:09:35;;;;;;;4.63;2.83;;;18.50;99.90;;;;;;5063056;28;20099;-59
2022/06/24 06:12:00;;;;;;;3.28;2.83;;;18.50;99.90;;;;;;5072182;28;20039;-60
2022/06/24 06:14:26;;;;;;;7.18;3.80;;;18.40;99.90;;;;;;5067514;28;20017;-60
2022/06/24 06:16:51;;;;;;;5.38;4.47;;;18.40;99.90;;;;;;5068970;28;20023;-60
2022/06/24 06:19:17;;;;;;;4.82;4.40;;;18.30;99.90;;;;;;5057993;28;20036;-59
2022/06/24 06:21:44;;;;;;;4.32;3.63;;;18.30;99.90;;;;;;5060983;28;20024;-59
2022/06/24 06:24:09;;;;;;;4.70;4.22;;;18.30;99.90;;;;;;5058252;28;20032;-59
2022/06/24 06:26:35;;;;;;;6.00;4.38;;;18.30;99.90;;;;;;5067224;28;20032;-60
2022/06/24 06:29:01;;;;;;;5.35;4.70;;;18.30;99.90;;;;;;5062057;28;20017;-59
2022/06/24 06:31:27;;;;;;;5.88;5.28;;;18.30;99.90;;;;;;5063667;28;20031;-59
2022/06/24 06:33:53;;;;;;;7.43;5.15;;;18.30;99.90;;;;;;5060595;28;20013;-59
2022/06/24 06:36:18;;;;;;;4.38;3.97;;;18.30;99.90;;;;;;5061201;28;20028;-59
2022/06/24 06:38:44;;;;;;;5.10;3.97;;;18.30;99.90;;;;;;5069451;28;20060;-59
2022/06/24 06:41:09;;;;;;;4.57;3.45;;;18.40;99.90;;;;;;5064509;28;20078;-59
2022/06/24 06:43:35;;;;;;;6.22;4.13;;;18.60;99.90;;;;;;5067101;28;20508;-60
2022/06/24 06:46:00;;;;;;;4.35;3.95;;;18.60;99.90;;;;;;5067919;28;20530;-60
2022/06/24 06:48:26;;;;;;;4.88;4.07;;;18.60;99.90;;;;;;5061232;28;20017;-60
2022/06/24 06:50:56;;;;;;;7.03;4.95;;;18.60;99.90;;;;;;5063518;28;20016;-60
2022/06/24 06:53:23;;;;;;;5.97;4.88;;;18.70;99.90;;;;;;5060537;28;20408;-59
2022/06/24 06:55:49;;;;;;;7.05;6.30;;;18.70;99.90;;;;;;5070335;28;20040;-59
2022/06/24 06:58:15;;;;;;;8.40;6.82;;;18.70;99.90;;;;;;5067048;28;20017;-59
2022/06/24 07:00:40;;;;;;;7.63;6.63;;;18.70;99.90;;;;;;5064397;28;20098;-59
2022/06/24 07:03:06;;;;;;;6.57;5.97;;;18.60;99.90;;;;;;5059705;28;20021;-59
2022/06/24 07:05:31;;;;;;;7.88;7.07;;;18.60;99.90;;;;;;5071073;28;20037;-60
2022/06/24 07:07:57;;;;;;;7.70;7.00;;;18.60;99.90;;;;;;5066633;28;20043;-60
2022/06/24 07:10:22;;;;;;;6.93;6.00;;;18.60;99.90;;;;;;5068662;28;20028;-59
2022/06/24 07:12:48;;;;;;;6.45;5.85;;;18.60;99.90;;;;;;5055263;28;20062;-60
2022/06/24 07:15:16;;;;;;;7.55;6.82;;;18.60;99.90;;;;;;5069931;28;20378;-59
2022/06/24 07:17:42;;;;;;;10.57;8.73;;;18.70;99.90;;;;;;5067506;28;20013;-59
2022/06/24 07:20:13;;;;;;;8.50;7.70;;;18.70;99.90;;;;;;5076085;28;20102;-59
2022/06/24 07:22:40;;;;;;;9.60;8.60;;;18.70;99.90;;;;;;5079683;28;20021;-59
2022/06/24 07:25:06;;;;;;;8.23;7.40;;;18.70;99.90;;;;;;5077371;28;20035;-59
2022/06/24 07:27:31;;;;;;;10.45;9.18;;;18.70;99.90;;;;;;5066632;28;20024;-59
2022/06/24 07:29:57;;;;;;;11.38;10.27;;;18.70;99.90;;;;;;5087644;28;20115;-61
2022/06/24 07:32:22;;;;;;;8.77;7.97;;;18.70;99.90;;;;;;5070545;28;20025;-59
2022/06/24 07:34:48;;;;;;;8.65;6.93;;;18.70;99.90;;;;;;5061136;28;20043;-59
2022/06/24 07:37:13;;;;;;;10.25;9.35;;;18.70;99.90;;;;;;5063246;28;20056;-59
2022/06/24 07:39:39;;;;;;;9.30;8.40;;;18.80;99.90;;;;;;5077978;28;20051;-60
2022/06/24 07:42:05;;;;;;;11.60;10.55;;;18.90;99.90;;;;;;5065000;28;20063;-60
2022/06/24 07:44:30;;;;;;;11.13;10.13;;;18.90;99.90;;;;;;5062946;28;20491;-60
2022/06/24 07:46:57;;;;;;;11.98;10.77;;;18.90;99.90;;;;;;5083319;28;20024;-60
2022/06/24 07:49:23;;;;;;;12.10;11.00;;;18.90;99.90;;;;;;5073712;28;20533;-59
2022/06/24 07:52:04;;;;;;;;;;;;;;;;;;;;;
2022/06/24 07:57:51;;;;;;;13.35;12.05;;;19.00;99.90;;;;;;5060412;28;20055;-59
2022/06/24 08:00:17;;;;;;;11.57;10.43;;;18.90;99.90;;;;;;5068209;28;20567;-60
2022/06/24 08:02:45;;;;;;;11.13;10.13;;;19.00;99.90;;;;;;5067364;28;20056;-59
2022/06/24 08:05:11;;;;;;;13.52;12.32;;;19.10;99.90;;;;;;5067486;28;20102;-60
2022/06/24 08:07:37;;;;;;;12.35;11.25;;;19.10;99.90;;;;;;5069839;28;20061;-60
2022/06/24 08:10:03;;;;;;;13.38;12.10;;;19.10;99.90;;;;;;5070015;28;20020;-60
2022/06/24 08:12:28;;;;;;;13.98;12.68;;;19.20;99.90;;;;;;5070291;28;20028;-59
2022/06/24 08:14:54;;;;;;;13.30;12.10;;;19.20;99.90;;;;;;5069273;28;20020;-60
2022/06/24 08:17:19;;;;;;;13.82;12.43;;;19.20;99.90;;;;;;5071242;28;20431;-59
2022/06/24 08:19:45;;;;;;;11.65;10.65;;;19.20;99.90;;;;;;5070794;28;20338;-59
2022/06/24 08:22:10;;;;;;;11.73;10.68;;;19.20;99.90;;;;;;5068862;28;20472;-60
2022/06/24 08:24:36;;;;;;;13.48;12.23;;;19.20;99.90;;;;;;5068195;28;20051;-59
2022/06/24 08:27:02;;;;;;;13.13;12.02;;;19.30;99.90;;;;;;5070466;28;20474;-59
2022/06/24 08:29:47;;;;;;;10.68;9.68;;;19.30;99.90;;;;;;5067672;28;20498;-59
2022/06/24 08:35:57;;;;;;;8.65;7.80;;;19.60;99.90;;;;;;5033228;28;20040;-60
2022/06/24 08:42:13;;;;;;;12.75;11.20;;;19.70;99.90;;;;;;4973440;28;20120;-60
2022/06/24 08:44:40;;;;;;;13.40;12.20;;;19.70;99.90;;;;;;5060973;28;20013;-59
2022/06/24 08:47:06;;;;;;;13.40;12.20;;;19.70;99.90;;;;;;5064224;28;20028;-60
2022/06/24 08:49:35;;;;;;;12.27;11.18;;;19.60;99.90;;;;;;5065836;28;20479;-59
2022/06/24 08:52:04;;;;;;;12.57;11.38;;;19.70;99.90;;;;;;5055966;28;20028;-59
2022/06/24 08:54:30;;;;;;;11.90;10.90;;;19.70;99.90;;;;;;5075380;28;20530;-59
2022/06/24 08:56:56;;;;;;;12.75;11.50;;;19.80;99.90;;;;;;5066787;28;20080;-59
2022/06/24 08:59:22;;;;;;;11.02;10.02;;;19.80;99.90;;;;;;5063341;28;20472;-59
2022/06/24 09:01:48;;;;;;;9.85;8.95;;;19.80;99.90;;;;;;5057772;28;20032;-59
2022/06/24 09:04:14;;;;;;;8.18;7.47;;;19.90;99.90;;;;;;5055681;28;20033;-60
2022/06/24 09:06:41;;;;;;;9.05;7.85;;;20.00;99.90;;;;;;5057474;28;20452;-60
2022/06/24 09:09:07;;;;;;;10.60;9.68;;;20.00;99.90;;;;;;5060641;28;20472;-60
2022/06/24 09:11:40;;;;;;;10.10;9.20;;;20.00;99.90;;;;;;5061813;28;20064;-60
2022/06/24 09:14:07;;;;;;;10.23;9.32;;;20.00;99.90;;;;;;5074655;28;20321;-60
2022/06/24 09:16:37;;;;;;;8.77;7.97;;;20.00;99.90;;;;;;5074454;28;20039;-60
2022/06/24 09:19:06;;;;;;;;;;;20.00;99.90;;;;;;5070263;28;20021;-59
2022/06/24 09:21:41;;;;;;;;;;;20.00;99.90;;;;;;5084319;28;19904;-62
2022/06/24 09:24:07;;;;;;;8.70;7.80;;;19.90;99.90;;;;;;5070324;28;19954;-60
2022/06/24 09:26:38;;;;;;;7.85;7.15;;;20.00;99.90;;;;;;5063745;28;20033;-59
2022/06/24 09:29:15;;;;;;;10.23;9.25;;;20.00;99.90;;;;;;5082671;28;20020;-60
2022/06/24 09:31:41;;;;;;;7.97;7.18;;;20.00;99.90;;;;;;5085068;28;20027;-59
2022/06/24 09:34:15;;;;;;;11.85;10.68;;;20.00;99.90;;;;;;5074927;28;20075;-59
2022/06/24 09:36:43;;;;;;;12.50;11.30;;;20.10;99.90;;;;;;5084687;28;20024;-59
2022/06/24 09:39:11;;;;;;;11.52;10.40;;;20.10;99.90;;;;;;5083010;28;20495;-60
2022/06/24 09:41:46;;;;;;;11.18;10.18;;;20.20;99.90;;;;;;5076549;28;20378;-59
2022/06/24 09:44:12;;;;;;;13.65;12.35;;;20.30;99.90;;;;;;5065837;28;20044;-59
2022/06/24 09:46:38;;;;;;;15.75;14.13;;;20.40;99.90;;;;;;5062149;28;20027;-60
2022/06/24 09:49:06;;;;;;;13.20;12.00;;;20.60;99.90;;;;;;5066954;28;20017;-60
2022/06/24 09:51:32;;;;;;;12.82;11.63;;;20.60;99.90;;;;;;5059096;28;20032;-60
2022/06/24 09:53:59;;;;;;;13.48;12.20;;;20.80;99.90;;;;;;5061131;28;20509;-60
2022/06/24 09:56:24;;;;;;;12.82;11.52;;;21.00;99.90;;;;;;5056397;28;20106;-60
2022/06/24 10:01:37;;;;;;;11.80;10.70;;;21.30;99.90;;;;;;5059565;28;20047;-60
2022/06/24 10:04:18;;;;;;;16.20;14.60;;;21.40;99.90;;;;;;5060835;28;20094;-60
2022/06/24 10:06:46;;;;;;;12.45;10.82;;;21.50;99.90;;;;;;5062056;28;20077;-60
2022/06/24 10:09:12;;;;;;;10.40;9.45;;;21.60;99.90;;;;;;5061416;28;20040;-60
2022/06/24 10:11:42;;;;;;;10.07;9.18;;;21.70;99.90;;;;;;5058418;28;20540;-60
2022/06/24 10:14:08;;;;;;;9.77;8.88;;;21.90;99.90;;;;;;5061528;28;20028;-59
2022/06/24 10:16:35;;;;;;;13.13;11.82;;;22.00;99.90;;;;;;5056027;28;20099;-60
2022/06/24 10:19:02;;;;;;;10.95;9.95;;;22.00;99.90;;;;;;5063597;28;20174;-60
2022/06/24 10:21:28;;;;;;;10.18;9.05;;;22.00;99.90;;;;;;5064881;28;20036;-61
2022/06/24 10:23:56;;;;;;;10.45;9.45;;;22.10;99.90;;;;;;5059492;28;20392;-60
2022/06/24 10:26:31;;;;;;;8.38;7.57;;;22.10;99.90;;;;;;5053755;28;20028;-60
2022/06/24 10:29:00;;;;;;;13.55;12.27;;;22.20;99.90;;;;;;5084414;28;20028;-60
2022/06/24 10:31:54;;;;;;;11.47;10.37;;;22.20;99.90;;;;;;5060325;28;20235;-61
2022/06/24 10:34:22;;;;;;;10.40;9.40;;;22.30;99.90;;;;;;5067095;28;20048;-61
2022/06/24 10:36:49;;;;;;;8.68;7.88;;;22.40;99.90;;;;;;5052037;28;20488;-61
2022/06/24 10:39:41;;;;;;;7.30;6.53;;;22.60;99.90;;;;;;5064795;28;20493;-60
2022/06/24 10:42:33;;;;;;;5.75;5.15;;;22.80;99.90;;;;;;5052688;28;20397;-61
2022/06/24 10:45:01;;;;;;;7.07;5.72;;;23.10;99.90;;;;;;5058716;28;20037;-61
2022/06/24 10:47:43;;;;;;;5.07;4.57;;;23.20;99.50;;;;;;5048668;28;20036;-61
2022/06/24 10:50:13;;;;;;;4.75;4.22;;;23.40;98.80;;;;;;5058452;28;20062;-61
2022/06/24 10:52:51;;;;;;;4.22;3.78;;;23.50;98.20;;;;;;5069237;28;20551;-61
2022/06/24 10:55:28;;;;;;;3.92;3.63;;;23.70;97.80;;;;;;5070641;28;20468;-61
2022/06/24 10:58:06;;;;;;;3.92;3.60;;;23.90;96.90;;;;;;5069687;28;20052;-61
2022/06/24 11:00:54;;;;;;;3.35;3.05;;;24.20;96.60;;;;;;5065351;28;20074;-61
2022/06/24 11:03:40;;;;;;;6.28;4.85;;;24.40;96.40;;;;;;5070071;28;20124;-61
2022/06/24 11:06:08;;;;;;;5.20;4.70;;;24.40;94.50;;;;;;5064806;28;20513;-61
2022/06/24 11:08:37;;;;;;;5.43;4.83;;;24.20;94.20;;;;;;5067770;28;20032;-61
2022/06/24 11:11:04;;;;;;;4.40;4.00;;;24.10;94.00;;;;;;5067597;28;20013;-61
2022/06/24 11:13:30;;;;;;;4.20;3.40;;;23.90;93.60;;;;;;5070553;28;20316;-61
2022/06/24 11:15:58;;;;;;;3.40;3.10;;;23.80;94.00;;;;;;5068941;28;20024;-61
2022/06/24 11:18:25;;;;;;;4.38;3.42;;;23.80;94.10;;;;;;5075009;28;20112;-61
2022/06/24 11:20:57;;;;;;;5.22;3.78;;;23.80;94.20;;;;;;5078980;28;20020;-61
2022/06/24 11:23:30;;;;;;;5.97;5.45;;;23.70;94.30;;;;;;5060700;28;20020;-62
2022/06/24 11:26:00;;;;;;;7.93;7.22;;;23.60;94.10;;;;;;5074477;28;20024;-61
2022/06/24 11:28:30;;;;;;;8.82;8.02;;;23.50;94.20;;;;;;5079929;28;20024;-61
2022/06/24 11:31:12;;;;;;;9.02;8.23;;;23.30;94.30;;;;;;5069784;28;20112;-61
2022/06/24 11:33:37;;;;;;;10.55;9.57;;;23.10;94.60;;;;;;5064193;28;20017;-61
2022/06/24 11:36:03;;;;;;;8.25;7.47;;;22.70;95.20;;;;;;5064494;28;20024;-60
2022/06/24 11:38:29;;;;;;;5.70;5.25;;;22.30;95.90;;;;;;5091570;27;20025;-61
2022/06/24 11:40:56;;;;;;;4.70;4.30;;;22.10;96.50;;;;;;5063224;28;20067;-61
2022/06/24 11:43:21;;;;;;;5.10;4.60;;;22.00;96.80;;;;;;5057681;28;20078;-61
2022/06/24 11:45:48;;;;;;;5.20;4.32;;;21.90;97.00;;;;;;5064869;28;20469;-60
2022/06/24 11:51:48;;;;;;;2.42;2.17;;;21.70;97.30;;;;;;5057407;28;20461;-61
2022/06/24 11:54:14;;;;;;;2.58;2.03;;;21.60;97.40;;;;;;5066966;28;20024;-61
2022/06/24 11:56:41;;;;;;;1.92;1.73;;;21.70;97.50;;;;;;5069885;28;20036;-61
2022/06/24 11:59:07;;;;;;;2.50;1.70;;;21.80;97.30;;;;;;5068848;28;20025;-61
2022/06/24 12:01:34;;;;;;;2.63;1.63;;;22.00;97.40;;;;;;5064023;28;20033;-61
2022/06/24 12:04:01;;;;;;;1.92;1.40;;;22.20;97.40;;;;;;5071962;28;20108;-61
2022/06/24 12:06:29;;;;;;;2.67;1.30;;;22.40;97.20;;;;;;5062311;28;20032;-61
2022/06/24 12:08:55;;;;;;;2.00;1.52;;;22.70;97.30;;;;;;5060030;28;20020;-61
2022/06/24 12:11:22;;;;;;;1.77;1.33;;;23.00;96.80;;;;;;5070030;28;20492;-61
2022/06/24 12:13:59;;;;;;;2.03;1.30;;;23.20;96.30;;;;;;5064567;28;20079;-61
2022/06/24 12:16:26;;;;;;;1.83;1.20;;;23.30;95.80;;;;;;5060598;28;20028;-61
2022/06/24 12:18:53;;;;;;;1.58;1.10;;;23.40;95.60;;;;;;5068370;28;20465;-61
2022/06/24 12:21:47;;;;;;;;;;;;;;;;;;;;;
2022/06/24 12:24:23;;;;;;;1.95;1.02;;;23.70;95.00;;;;;;5057316;28;20021;-61
2022/06/24 12:26:54;;;;;;;1.48;1.38;;;24.00;94.90;;;;;;5057122;28;20040;-61
2022/06/24 12:29:32;;;;;;;1.92;1.30;;;24.10;94.40;;;;;;5082760;28;20028;-62
2022/06/24 12:32:01;;;;;;;1.33;0.90;;;24.30;94.40;;;;;;5075238;28;20027;-62
2022/06/24 12:34:32;;;;;;;1.10;0.75;;;24.40;93.50;;;;;;5067642;28;20020;-61
2022/06/24 12:36:59;;;;;;;0.90;0.55;;;24.30;92.60;;;;;;5085926;28;20029;-61
2022/06/24 12:39:34;;;;;;;1.15;0.52;;;24.30;92.30;;;;;;5086449;28;20032;-61
2022/06/24 12:42:27;;;;;;;1.80;0.68;;;24.30;91.60;;;;;;5077314;28;20031;-61
2022/06/24 12:44:53;;;;;;;0.93;0.50;;;24.20;91.20;;;;;;5085396;28;20035;-61
2022/06/24 12:53:12;;;;;;;1.80;1.10;;;24.30;90.30;;;;;;5055522;28;20495;-61
2022/06/24 12:55:37;;;;;;;2.03;1.10;;;24.10;89.60;;;;;;5064394;28;20020;-61
2022/06/24 12:58:03;;;;;;;1.90;1.00;;;24.10;90.20;;;;;;5065155;28;20134;-61
2022/06/24 13:00:29;;;;;;;2.08;1.10;;;24.20;90.20;;;;;;5073691;28;20256;-61
2022/06/24 13:03:03;;;;;;;1.30;1.20;;;24.20;88.50;;;;;;5082973;28;20016;-61
2022/06/24 13:05:29;;;;;;;1.20;1.08;;;24.30;88.60;;;;;;5065707;28;20043;-61
2022/06/24 13:07:54;;;;;;;1.60;1.40;;;24.40;88.60;;;;;;5072578;28;20017;-62
2022/06/24 13:10:20;;;;;;;2.03;1.63;;;24.60;89.50;;;;;;5071887;28;20058;-62
2022/06/24 13:12:46;;;;;;;1.60;1.45;;;24.70;89.30;;;;;;5078781;28;20366;-61
2022/06/24 13:15:13;;;;;;;1.75;1.55;;;24.90;88.90;;;;;;5078631;28;20032;-62
2022/06/24 13:17:39;;;;;;;2.80;2.33;;;25.10;89.60;;;;;;5071956;28;20107;-61
2022/06/24 13:20:11;;;;;;;2.10;1.88;;;25.20;87.70;;;;;;5080271;28;20095;-61